West Wemyss, United Kingdom

3:43 AM BST on April 29, 2017 (GMT +0100)
Frances View | | Change Station

Elev 190 ft 56.13 °N, 3.12 °W | Updated 4 seconds ago

Partly Cloudy
Partly Cloudy
46.4 °F
Feels Like 46 °F
N
0.0
Wind Variable Wind from SSW
Gusts 0.0 mph

Today
High -- | Low -- °F
--% Chance of Precip.
Yesterday
High -- | Low -- °F
Precip. -- in
Pressure 29.92 in
Visibility -9999.0 miles
Clouds
Windchill 46 °F
Dew Point 35 °F
Humidity 65%
Rainfall 0.00 in
Snow Depth Not available.
5:32 AM 8:48 PM
Waxing Crescent, 10% visible
METAR EGPH 290220Z 18006KT CAVOK 08/03 Q1013
Pressure 29.92 in
Visibility -9999.0 miles
Clouds
Windchill 46 °F
Dew Point 35 °F
Humidity 65%
Rainfall 0.00 in
Snow Depth Not available.
5:32 AM 8:48 PM
Waxing Crescent, 10% visible
METAR EGPH 290220Z 18006KT CAVOK 08/03 Q1013

Get Severe Weather Alerts

Thanks for signing up!

Be on the lookout for a verification email in your inbox.

You'll start receiving the daily forecast at 8 AM.

×

10-Day Weather Forecast

×

Almanac

Astronomy

Apr. 29, 2017 Rise Set
Actual Time
Civil Twilight
Nautical Twilight
Astronomical Twilight
Moon
Length of Visible Light
Length of Day
Tomorrow will be .
, % of the Moon is Illuminated

Today's Extremes

Country Highs Country Lows

Community

WunderPhotos

WunderBlog® & News

Nearby

Air Quality

  Air Quality AQ Index Pollutant
Not available.

Snow Depth

Station Depth Elevation

Earthquake Activity

City Distance Mag. Time & Date
Minimum magnitude displayed is 2.5.

Coastal Water Temperatures

Place Temperature

Stations

Nearby Weather Stations

Station Location Temp. Windchill Dew Point Humidity Wind Precip. Elev Updated Type